sensor_id;sensor_type;location;lat;lon;timestamp;P1;durP1;ratioP1;P2;durP2;ratioP2
56081;SDS011;41957;52.060;5.138;2022-11-14T00:01:26;13.13;;;4.90;;
56081;SDS011;41957;52.060;5.138;2022-11-14T00:03:51;13.80;;;5.32;;
56081;SDS011;41957;52.060;5.138;2022-11-14T00:06:17;13.35;;;5.40;;
56081;SDS011;41957;52.060;5.138;2022-11-14T00:08:42;12.13;;;4.65;;
56081;SDS011;41957;52.060;5.138;2022-11-14T00:11:08;12.57;;;4.95;;
56081;SDS011;41957;52.060;5.138;2022-11-14T00:13:34;12.05;;;5.00;;
56081;SDS011;41957;52.060;5.138;2022-11-14T00:15:59;12.82;;;4.75;;
56081;SDS011;41957;52.060;5.138;2022-11-14T00:18:25;13.07;;;5.22;;
56081;SDS011;41957;52.060;5.138;2022-11-14T00:20:50;11.70;;;4.90;;
56081;SDS011;41957;52.060;5.138;2022-11-14T00:23:17;12.75;;;5.07;;
56081;SDS011;41957;52.060;5.138;2022-11-14T00:25:44;12.57;;;4.95;;
56081;SDS011;41957;52.060;5.138;2022-11-14T00:28:10;14.85;;;5.22;;
56081;SDS011;41957;52.060;5.138;2022-11-14T00:30:36;12.30;;;5.15;;
56081;SDS011;41957;52.060;5.138;2022-11-14T00:33:01;12.20;;;4.78;;
56081;SDS011;41957;52.060;5.138;2022-11-14T00:35:26;12.73;;;4.80;;
56081;SDS011;41957;52.060;5.138;2022-11-14T00:37:52;13.82;;;4.38;;
56081;SDS011;41957;52.060;5.138;2022-11-14T00:40:17;13.05;;;5.00;;
56081;SDS011;41957;52.060;5.138;2022-11-14T00:42:42;12.45;;;5.00;;
56081;SDS011;41957;52.060;5.138;2022-11-14T00:45:08;12.02;;;4.85;;
56081;SDS011;41957;52.060;5.138;2022-11-14T00:47:34;13.05;;;4.80;;
56081;SDS011;41957;52.060;5.138;2022-11-14T00:50:00;12.05;;;5.05;;
56081;SDS011;41957;52.060;5.138;2022-11-14T00:52:25;13.45;;;5.65;;
56081;SDS011;41957;52.060;5.138;2022-11-14T00:54:51;13.77;;;5.15;;
56081;SDS011;41957;52.060;5.138;2022-11-14T00:57:16;12.27;;;4.80;;
56081;SDS011;41957;52.060;5.138;2022-11-14T00:59:41;15.27;;;5.22;;
56081;SDS011;41957;52.060;5.138;2022-11-14T01:02:06;13.07;;;5.38;;
56081;SDS011;41957;52.060;5.138;2022-11-14T01:04:32;12.80;;;5.05;;
56081;SDS011;41957;52.060;5.138;2022-11-14T01:06:57;11.90;;;4.82;;
56081;SDS011;41957;52.060;5.138;2022-11-14T01:09:23;13.10;;;5.78;;
56081;SDS011;41957;52.060;5.138;2022-11-14T01:11:48;13.02;;;5.22;;
56081;SDS011;41957;52.060;5.138;2022-11-14T01:14:13;12.10;;;5.07;;
56081;SDS011;41957;52.060;5.138;2022-11-14T01:16:39;13.48;;;5.15;;
56081;SDS011;41957;52.060;5.138;2022-11-14T01:19:04;13.05;;;4.70;;
56081;SDS011;41957;52.060;5.138;2022-11-14T01:21:29;12.57;;;4.95;;
56081;SDS011;41957;52.060;5.138;2022-11-14T01:23:55;13.25;;;5.15;;
56081;SDS011;41957;52.060;5.138;2022-11-14T01:26:20;12.57;;;5.18;;
56081;SDS011;41957;52.060;5.138;2022-11-14T01:28:46;13.13;;;5.22;;
56081;SDS011;41957;52.060;5.138;2022-11-14T01:31:12;13.35;;;4.97;;
56081;SDS011;41957;52.060;5.138;2022-11-14T01:33:40;12.55;;;5.07;;
56081;SDS011;41957;52.060;5.138;2022-11-14T01:36:06;12.77;;;5.18;;
56081;SDS011;41957;52.060;5.138;2022-11-14T01:38:33;14.52;;;5.15;;
56081;SDS011;41957;52.060;5.138;2022-11-14T01:40:59;12.93;;;5.20;;
56081;SDS011;41957;52.060;5.138;2022-11-14T01:43:25;13.98;;;5.93;;
56081;SDS011;41957;52.060;5.138;2022-11-14T01:45:57;14.02;;;5.30;;
56081;SDS011;41957;52.060;5.138;2022-11-14T01:48:36;13.77;;;5.25;;
56081;SDS011;41957;52.060;5.138;2022-11-14T01:51:12;13.30;;;5.40;;
56081;SDS011;41957;52.060;5.138;2022-11-14T01:53:39;13.10;;;5.55;;
56081;SDS011;41957;52.060;5.138;2022-11-14T01:56:05;14.98;;;5.85;;
56081;SDS011;41957;52.060;5.138;2022-11-14T01:58:34;15.05;;;6.00;;
56081;SDS011;41957;52.060;5.138;2022-11-14T02:01:03;14.25;;;5.97;;
56081;SDS011;41957;52.060;5.138;2022-11-14T02:03:28;14.18;;;6.13;;
56081;SDS011;41957;52.060;5.138;2022-11-14T02:05:53;14.40;;;5.65;;
56081;SDS011;41957;52.060;5.138;2022-11-14T02:08:20;14.95;;;6.25;;
56081;SDS011;41957;52.060;5.138;2022-11-14T02:10:47;14.60;;;6.50;;
56081;SDS011;41957;52.060;5.138;2022-11-14T02:13:12;13.18;;;5.78;;
56081;SDS011;41957;52.060;5.138;2022-11-14T02:15:38;15.43;;;6.32;;
56081;SDS011;41957;52.060;5.138;2022-11-14T02:18:03;14.25;;;5.95;;
56081;SDS011;41957;52.060;5.138;2022-11-14T02:20:29;16.58;;;6.43;;
56081;SDS011;41957;52.060;5.138;2022-11-14T02:22:58;14.40;;;6.35;;
56081;SDS011;41957;52.060;5.138;2022-11-14T02:25:24;14.98;;;6.18;;
56081;SDS011;41957;52.060;5.138;2022-11-14T02:27:50;13.43;;;5.63;;
56081;SDS011;41957;52.060;5.138;2022-11-14T02:30:19;14.23;;;5.75;;
56081;SDS011;41957;52.060;5.138;2022-11-14T02:32:46;14.25;;;5.90;;
56081;SDS011;41957;52.060;5.138;2022-11-14T02:35:11;14.60;;;6.45;;
56081;SDS011;41957;52.060;5.138;2022-11-14T02:37:37;13.75;;;5.50;;
56081;SDS011;41957;52.060;5.138;2022-11-14T02:40:03;15.02;;;6.40;;
56081;SDS011;41957;52.060;5.138;2022-11-14T02:42:28;15.50;;;6.55;;
56081;SDS011;41957;52.060;5.138;2022-11-14T02:44:54;16.20;;;6.40;;
56081;SDS011;41957;52.060;5.138;2022-11-14T02:47:19;15.82;;;6.10;;
56081;SDS011;41957;52.060;5.138;2022-11-14T02:49:44;16.83;;;6.72;;
56081;SDS011;41957;52.060;5.138;2022-11-14T02:52:10;14.45;;;6.40;;
56081;SDS011;41957;52.060;5.138;2022-11-14T02:54:35;15.70;;;6.40;;
56081;SDS011;41957;52.060;5.138;2022-11-14T02:57:00;14.55;;;6.40;;
56081;SDS011;41957;52.060;5.138;2022-11-14T02:59:26;15.70;;;7.00;;
56081;SDS011;41957;52.060;5.138;2022-11-14T03:01:51;14.43;;;6.95;;
56081;SDS011;41957;52.060;5.138;2022-11-14T03:04:16;15.57;;;6.53;;
56081;SDS011;41957;52.060;5.138;2022-11-14T03:06:42;15.02;;;6.65;;
56081;SDS011;41957;52.060;5.138;2022-11-14T03:09:07;15.23;;;6.65;;
56081;SDS011;41957;52.060;5.138;2022-11-14T03:11:32;15.18;;;7.28;;
56081;SDS011;41957;52.060;5.138;2022-11-14T03:13:58;15.93;;;7.38;;
56081;SDS011;41957;52.060;5.138;2022-11-14T03:16:24;16.33;;;7.78;;
56081;SDS011;41957;52.060;5.138;2022-11-14T03:18:49;14.77;;;6.90;;
56081;SDS011;41957;52.060;5.138;2022-11-14T03:21:16;14.82;;;6.78;;
56081;SDS011;41957;52.060;5.138;2022-11-14T03:23:43;16.15;;;7.00;;
56081;SDS011;41957;52.060;5.138;2022-11-14T03:26:09;15.38;;;7.22;;
56081;SDS011;41957;52.060;5.138;2022-11-14T03:28:36;15.95;;;6.88;;
56081;SDS011;41957;52.060;5.138;2022-11-14T03:31:02;15.95;;;7.38;;
56081;SDS011;41957;52.060;5.138;2022-11-14T03:33:27;14.95;;;7.10;;
56081;SDS011;41957;52.060;5.138;2022-11-14T03:35:53;16.73;;;7.93;;
56081;SDS011;41957;52.060;5.138;2022-11-14T03:38:19;15.57;;;7.13;;
56081;SDS011;41957;52.060;5.138;2022-11-14T03:40:48;19.02;;;8.05;;
56081;SDS011;41957;52.060;5.138;2022-11-14T03:43:14;16.50;;;7.70;;
56081;SDS011;41957;52.060;5.138;2022-11-14T03:45:40;16.73;;;7.63;;
56081;SDS011;41957;52.060;5.138;2022-11-14T03:48:06;17.48;;;7.55;;
56081;SDS011;41957;52.060;5.138;2022-11-14T03:50:32;15.80;;;7.68;;
56081;SDS011;41957;52.060;5.138;2022-11-14T03:52:57;15.98;;;7.65;;
56081;SDS011;41957;52.060;5.138;2022-11-14T03:55:22;15.23;;;7.57;;
56081;SDS011;41957;52.060;5.138;2022-11-14T03:57:48;16.92;;;7.68;;
56081;SDS011;41957;52.060;5.138;2022-11-14T04:00:14;16.30;;;7.70;;
56081;SDS011;41957;52.060;5.138;2022-11-14T04:02:39;15.40;;;7.40;;
56081;SDS011;41957;52.060;5.138;2022-11-14T04:05:04;17.75;;;8.27;;
56081;SDS011;41957;52.060;5.138;2022-11-14T04:07:30;16.75;;;7.60;;
56081;SDS011;41957;52.060;5.138;2022-11-14T04:09:55;18.67;;;8.25;;
56081;SDS011;41957;52.060;5.138;2022-11-14T04:12:21;16.38;;;7.82;;
56081;SDS011;41957;52.060;5.138;2022-11-14T04:14:46;18.25;;;8.35;;
56081;SDS011;41957;52.060;5.138;2022-11-14T04:17:11;16.98;;;8.23;;
56081;SDS011;41957;52.060;5.138;2022-11-14T04:19:37;15.15;;;8.00;;
56081;SDS011;41957;52.060;5.138;2022-11-14T04:22:02;18.17;;;7.75;;
56081;SDS011;41957;52.060;5.138;2022-11-14T04:24:27;17.02;;;8.02;;
56081;SDS011;41957;52.060;5.138;2022-11-14T04:26:53;16.92;;;7.60;;
56081;SDS011;41957;52.060;5.138;2022-11-14T04:29:18;16.23;;;7.68;;
56081;SDS011;41957;52.060;5.138;2022-11-14T04:31:43;15.18;;;8.15;;
56081;SDS011;41957;52.060;5.138;2022-11-14T04:34:09;16.67;;;8.00;;
56081;SDS011;41957;52.060;5.138;2022-11-14T04:36:34;18.15;;;8.80;;
56081;SDS011;41957;52.060;5.138;2022-11-14T04:38:59;17.02;;;7.63;;
56081;SDS011;41957;52.060;5.138;2022-11-14T04:41:25;18.17;;;8.20;;
56081;SDS011;41957;52.060;5.138;2022-11-14T04:43:50;16.48;;;8.13;;
56081;SDS011;41957;52.060;5.138;2022-11-14T04:46:16;18.55;;;8.73;;
56081;SDS011;41957;52.060;5.138;2022-11-14T04:48:41;18.42;;;8.23;;
56081;SDS011;41957;52.060;5.138;2022-11-14T04:51:06;18.70;;;8.73;;
56081;SDS011;41957;52.060;5.138;2022-11-14T04:53:31;17.67;;;8.65;;
56081;SDS011;41957;52.060;5.138;2022-11-14T04:55:57;18.33;;;8.27;;
56081;SDS011;41957;52.060;5.138;2022-11-14T04:58:22;17.30;;;8.80;;
56081;SDS011;41957;52.060;5.138;2022-11-14T05:00:48;18.25;;;8.68;;
56081;SDS011;41957;52.060;5.138;2022-11-14T05:03:13;18.20;;;8.70;;
56081;SDS011;41957;52.060;5.138;2022-11-14T05:05:39;18.10;;;8.52;;
56081;SDS011;41957;52.060;5.138;2022-11-14T05:08:04;16.77;;;8.35;;
56081;SDS011;41957;52.060;5.138;2022-11-14T05:10:29;18.10;;;8.68;;
56081;SDS011;41957;52.060;5.138;2022-11-14T05:12:54;18.35;;;8.45;;
56081;SDS011;41957;52.060;5.138;2022-11-14T05:15:20;16.17;;;8.32;;
56081;SDS011;41957;52.060;5.138;2022-11-14T05:17:45;17.50;;;9.15;;
56081;SDS011;41957;52.060;5.138;2022-11-14T05:20:11;17.92;;;8.50;;
56081;SDS011;41957;52.060;5.138;2022-11-14T05:22:36;18.27;;;8.95;;
56081;SDS011;41957;52.060;5.138;2022-11-14T05:25:02;16.33;;;7.72;;
56081;SDS011;41957;52.060;5.138;2022-11-14T05:27:28;16.33;;;8.48;;
56081;SDS011;41957;52.060;5.138;2022-11-14T05:29:53;18.52;;;8.85;;
56081;SDS011;41957;52.060;5.138;2022-11-14T05:32:19;17.85;;;8.23;;
56081;SDS011;41957;52.060;5.138;2022-11-14T05:34:45;19.05;;;8.80;;
56081;SDS011;41957;52.060;5.138;2022-11-14T05:37:10;18.15;;;9.05;;
56081;SDS011;41957;52.060;5.138;2022-11-14T05:39:36;18.55;;;8.93;;
56081;SDS011;41957;52.060;5.138;2022-11-14T05:42:01;17.08;;;8.82;;
56081;SDS011;41957;52.060;5.138;2022-11-14T05:44:26;17.85;;;8.77;;
56081;SDS011;41957;52.060;5.138;2022-11-14T05:46:51;18.67;;;8.52;;
56081;SDS011;41957;52.060;5.138;2022-11-14T05:49:17;17.58;;;8.52;;
56081;SDS011;41957;52.060;5.138;2022-11-14T05:51:42;17.55;;;8.30;;
56081;SDS011;41957;52.060;5.138;2022-11-14T05:54:07;17.50;;;9.10;;
56081;SDS011;41957;52.060;5.138;2022-11-14T05:56:33;16.77;;;8.57;;
56081;SDS011;41957;52.060;5.138;2022-11-14T05:58:58;18.55;;;9.15;;
56081;SDS011;41957;52.060;5.138;2022-11-14T06:01:23;17.98;;;8.93;;
56081;SDS011;41957;52.060;5.138;2022-11-14T06:03:49;17.77;;;9.48;;
56081;SDS011;41957;52.060;5.138;2022-11-14T06:06:16;18.38;;;9.45;;
56081;SDS011;41957;52.060;5.138;2022-11-14T06:08:42;20.25;;;9.02;;
56081;SDS011;41957;52.060;5.138;2022-11-14T06:11:09;18.50;;;9.30;;
56081;SDS011;41957;52.060;5.138;2022-11-14T06:13:36;17.67;;;8.73;;
56081;SDS011;41957;52.060;5.138;2022-11-14T06:16:03;17.08;;;8.57;;
56081;SDS011;41957;52.060;5.138;2022-11-14T06:18:30;17.02;;;8.82;;
56081;SDS011;41957;52.060;5.138;2022-11-14T06:21:00;17.58;;;9.07;;
56081;SDS011;41957;52.060;5.138;2022-11-14T06:23:34;17.20;;;8.40;;
56081;SDS011;41957;52.060;5.138;2022-11-14T06:26:00;18.40;;;8.95;;
56081;SDS011;41957;52.060;5.138;2022-11-14T06:28:26;17.60;;;8.60;;
56081;SDS011;41957;52.060;5.138;2022-11-14T06:30:59;19.80;;;8.95;;
56081;SDS011;41957;52.060;5.138;2022-11-14T06:33:26;16.65;;;8.20;;
56081;SDS011;41957;52.060;5.138;2022-11-14T06:35:58;18.00;;;8.48;;
56081;SDS011;41957;52.060;5.138;2022-11-14T06:38:25;19.52;;;10.43;;
56081;SDS011;41957;52.060;5.138;2022-11-14T06:40:50;19.38;;;9.23;;
56081;SDS011;41957;52.060;5.138;2022-11-14T06:43:16;19.55;;;9.52;;
56081;SDS011;41957;52.060;5.138;2022-11-14T06:45:41;19.00;;;8.82;;
56081;SDS011;41957;52.060;5.138;2022-11-14T06:48:07;21.40;;;9.63;;
56081;SDS011;41957;52.060;5.138;2022-11-14T06:50:32;20.15;;;8.77;;
56081;SDS011;41957;52.060;5.138;2022-11-14T06:52:57;19.25;;;9.27;;
56081;SDS011;41957;52.060;5.138;2022-11-14T06:55:23;19.23;;;9.50;;
56081;SDS011;41957;52.060;5.138;2022-11-14T06:57:54;22.98;;;9.57;;
56081;SDS011;41957;52.060;5.138;2022-11-14T07:00:20;19.45;;;8.98;;
56081;SDS011;41957;52.060;5.138;2022-11-14T07:02:47;19.10;;;9.10;;
56081;SDS011;41957;52.060;5.138;2022-11-14T07:05:12;20.55;;;10.00;;
56081;SDS011;41957;52.060;5.138;2022-11-14T07:07:38;19.15;;;9.65;;
56081;SDS011;41957;52.060;5.138;2022-11-14T07:10:03;20.15;;;10.13;;
56081;SDS011;41957;52.060;5.138;2022-11-14T07:12:29;20.70;;;9.48;;
56081;SDS011;41957;52.060;5.138;2022-11-14T07:14:56;20.92;;;10.05;;
56081;SDS011;41957;52.060;5.138;2022-11-14T07:17:22;23.15;;;9.18;;
56081;SDS011;41957;52.060;5.138;2022-11-14T07:19:47;20.40;;;9.70;;
56081;SDS011;41957;52.060;5.138;2022-11-14T07:22:12;19.48;;;9.10;;
56081;SDS011;41957;52.060;5.138;2022-11-14T07:24:37;20.98;;;9.15;;
56081;SDS011;41957;52.060;5.138;2022-11-14T07:27:03;20.67;;;9.85;;
56081;SDS011;41957;52.060;5.138;2022-11-14T07:29:32;17.85;;;8.68;;
56081;SDS011;41957;52.060;5.138;2022-11-14T07:31:58;20.02;;;9.57;;
56081;SDS011;41957;52.060;5.138;2022-11-14T07:34:23;18.75;;;9.15;;
56081;SDS011;41957;52.060;5.138;2022-11-14T07:36:48;19.65;;;9.30;;
56081;SDS011;41957;52.060;5.138;2022-11-14T07:39:14;18.88;;;9.05;;
56081;SDS011;41957;52.060;5.138;2022-11-14T07:41:40;18.42;;;8.55;;
56081;SDS011;41957;52.060;5.138;2022-11-14T07:44:05;19.45;;;9.43;;
56081;SDS011;41957;52.060;5.138;2022-11-14T07:46:30;20.00;;;9.00;;
56081;SDS011;41957;52.060;5.138;2022-11-14T07:48:56;20.27;;;8.93;;
56081;SDS011;41957;52.060;5.138;2022-11-14T07:51:21;18.63;;;9.23;;
56081;SDS011;41957;52.060;5.138;2022-11-14T07:53:46;19.50;;;9.30;;
56081;SDS011;41957;52.060;5.138;2022-11-14T07:56:12;17.60;;;8.55;;
56081;SDS011;41957;52.060;5.138;2022-11-14T07:58:38;20.85;;;9.10;;
56081;SDS011;41957;52.060;5.138;2022-11-14T08:01:05;19.02;;;9.02;;
56081;SDS011;41957;52.060;5.138;2022-11-14T08:03:32;18.63;;;8.63;;
56081;SDS011;41957;52.060;5.138;2022-11-14T08:05:59;17.85;;;9.18;;
56081;SDS011;41957;52.060;5.138;2022-11-14T08:08:25;18.08;;;9.23;;
56081;SDS011;41957;52.060;5.138;2022-11-14T08:10:50;20.90;;;9.15;;
56081;SDS011;41957;52.060;5.138;2022-11-14T08:13:26;18.88;;;9.18;;
56081;SDS011;41957;52.060;5.138;2022-11-14T08:15:53;21.15;;;9.15;;
56081;SDS011;41957;52.060;5.138;2022-11-14T08:18:19;18.08;;;8.65;;
56081;SDS011;41957;52.060;5.138;2022-11-14T08:20:44;16.48;;;8.43;;
56081;SDS011;41957;52.060;5.138;2022-11-14T08:23:10;23.50;;;8.70;;
56081;SDS011;41957;52.060;5.138;2022-11-14T08:25:36;19.25;;;7.80;;
56081;SDS011;41957;52.060;5.138;2022-11-14T08:28:01;19.63;;;8.50;;
56081;SDS011;41957;52.060;5.138;2022-11-14T08:30:27;18.48;;;8.13;;
56081;SDS011;41957;52.060;5.138;2022-11-14T08:32:53;18.00;;;8.52;;
56081;SDS011;41957;52.060;5.138;2022-11-14T08:35:18;18.35;;;8.57;;
56081;SDS011;41957;52.060;5.138;2022-11-14T08:37:43;19.23;;;7.80;;
56081;SDS011;41957;52.060;5.138;2022-11-14T08:40:09;18.70;;;8.38;;
56081;SDS011;41957;52.060;5.138;2022-11-14T08:42:35;17.13;;;7.82;;
56081;SDS011;41957;52.060;5.138;2022-11-14T08:45:00;18.30;;;8.13;;
56081;SDS011;41957;52.060;5.138;2022-11-14T08:47:26;18.42;;;8.68;;
56081;SDS011;41957;52.060;5.138;2022-11-14T08:49:51;18.02;;;7.85;;
56081;SDS011;41957;52.060;5.138;2022-11-14T08:52:17;18.33;;;7.63;;
56081;SDS011;41957;52.060;5.138;2022-11-14T08:54:42;18.70;;;7.70;;
56081;SDS011;41957;52.060;5.138;2022-11-14T08:57:07;17.73;;;8.07;;
56081;SDS011;41957;52.060;5.138;2022-11-14T08:59:33;15.98;;;7.60;;
56081;SDS011;41957;52.060;5.138;2022-11-14T09:01:58;17.15;;;7.57;;
56081;SDS011;41957;52.060;5.138;2022-11-14T09:04:23;19.33;;;7.90;;
56081;SDS011;41957;52.060;5.138;2022-11-14T09:06:49;17.92;;;7.47;;
56081;SDS011;41957;52.060;5.138;2022-11-14T09:09:15;17.73;;;7.72;;
56081;SDS011;41957;52.060;5.138;2022-11-14T09:11:41;16.80;;;7.80;;
56081;SDS011;41957;52.060;5.138;2022-11-14T09:14:06;18.70;;;8.50;;
56081;SDS011;41957;52.060;5.138;2022-11-14T09:16:31;18.67;;;7.55;;
56081;SDS011;41957;52.060;5.138;2022-11-14T09:18:58;16.40;;;7.78;;
56081;SDS011;41957;52.060;5.138;2022-11-14T09:21:24;17.17;;;7.95;;
56081;SDS011;41957;52.060;5.138;2022-11-14T09:23:49;16.20;;;7.53;;
56081;SDS011;41957;52.060;5.138;2022-11-14T09:26:15;16.20;;;7.43;;
56081;SDS011;41957;52.060;5.138;2022-11-14T09:28:42;18.88;;;8.20;;
56081;SDS011;41957;52.060;5.138;2022-11-14T09:31:09;16.52;;;7.60;;
56081;SDS011;41957;52.060;5.138;2022-11-14T09:33:35;15.77;;;7.07;;
56081;SDS011;41957;52.060;5.138;2022-11-14T09:36:02;15.70;;;7.38;;
56081;SDS011;41957;52.060;5.138;2022-11-14T09:38:30;17.98;;;7.30;;
56081;SDS011;41957;52.060;5.138;2022-11-14T09:46:20;15.52;;;7.50;;
56081;SDS011;41957;52.060;5.138;2022-11-14T09:48:48;17.27;;;7.05;;
56081;SDS011;41957;52.060;5.138;2022-11-14T09:51:19;16.05;;;7.05;;
56081;SDS011;41957;52.060;5.138;2022-11-14T09:56:29;16.38;;;7.35;;
56081;SDS011;41957;52.060;5.138;2022-11-14T09:58:54;15.75;;;6.93;;
56081;SDS011;41957;52.060;5.138;2022-11-14T10:01:31;15.77;;;6.80;;
56081;SDS011;41957;52.060;5.138;2022-11-14T10:24:04;15.23;;;7.10;;
56081;SDS011;41957;52.060;5.138;2022-11-14T10:26:37;15.23;;;7.18;;
56081;SDS011;41957;52.060;5.138;2022-11-14T10:32:24;16.02;;;6.57;;
56081;SDS011;41957;52.060;5.138;2022-11-14T10:34:55;16.08;;;6.53;;
56081;SDS011;41957;52.060;5.138;2022-11-14T10:38:03;14.88;;;6.72;;
56081;SDS011;41957;52.060;5.138;2022-11-14T10:40:40;15.88;;;6.93;;
56081;SDS011;41957;52.060;5.138;2022-11-14T10:43:29;15.32;;;6.75;;
56081;SDS011;41957;52.060;5.138;2022-11-14T10:46:16;15.45;;;6.10;;
56081;SDS011;41957;52.060;5.138;2022-11-14T10:48:46;16.35;;;6.78;;
56081;SDS011;41957;52.060;5.138;2022-11-14T10:51:17;14.27;;;6.35;;
56081;SDS011;41957;52.060;5.138;2022-11-14T10:56:30;13.30;;;6.00;;
56081;SDS011;41957;52.060;5.138;2022-11-14T10:58:56;14.52;;;6.45;;
56081;SDS011;41957;52.060;5.138;2022-11-14T11:01:31;14.30;;;6.30;;
56081;SDS011;41957;52.060;5.138;2022-11-14T11:06:49;15.50;;;6.40;;
56081;SDS011;41957;52.060;5.138;2022-11-14T11:12:02;14.80;;;6.05;;
56081;SDS011;41957;52.060;5.138;2022-11-14T11:14:29;13.73;;;6.13;;
56081;SDS011;41957;52.060;5.138;2022-11-14T11:19:36;12.68;;;5.43;;
56081;SDS011;41957;52.060;5.138;2022-11-14T11:24:53;16.05;;;6.85;;
56081;SDS011;41957;52.060;5.138;2022-11-14T11:30:17;13.60;;;6.05;;
56081;SDS011;41957;52.060;5.138;2022-11-14T11:32:44;14.82;;;6.20;;
56081;SDS011;41957;52.060;5.138;2022-11-14T11:35:10;13.70;;;6.10;;
56081;SDS011;41957;52.060;5.138;2022-11-14T11:37:45;14.40;;;5.28;;
56081;SDS011;41957;52.060;5.138;2022-11-14T11:40:19;14.68;;;6.10;;
56081;SDS011;41957;52.060;5.138;2022-11-14T11:42:55;13.98;;;6.55;;
56081;SDS011;41957;52.060;5.138;2022-11-14T11:45:33;14.10;;;6.18;;
56081;SDS011;41957;52.060;5.138;2022-11-14T11:50:41;15.35;;;6.55;;
56081;SDS011;41957;52.060;5.138;2022-11-14T11:55:49;15.27;;;7.57;;
56081;SDS011;41957;52.060;5.138;2022-11-14T12:01:10;19.33;;;9.38;;
56081;SDS011;41957;52.060;5.138;2022-11-14T12:03:36;20.08;;;10.40;;
56081;SDS011;41957;52.060;5.138;2022-11-14T12:11:47;17.80;;;8.48;;
56081;SDS011;41957;52.060;5.138;2022-11-14T12:17:35;15.80;;;7.70;;
56081;SDS011;41957;52.060;5.138;2022-11-14T12:20:32;16.70;;;8.02;;
56081;SDS011;41957;52.060;5.138;2022-11-14T12:25:41;16.48;;;7.70;;
56081;SDS011;41957;52.060;5.138;2022-11-14T12:31:23;16.05;;;7.43;;
56081;SDS011;41957;52.060;5.138;2022-11-14T12:33:54;17.00;;;8.43;;
56081;SDS011;41957;52.060;5.138;2022-11-14T12:36:27;16.13;;;7.25;;
56081;SDS011;41957;52.060;5.138;2022-11-14T12:38:55;16.63;;;7.13;;
56081;SDS011;41957;52.060;5.138;2022-11-14T12:41:32;15.13;;;7.32;;
56081;SDS011;41957;52.060;5.138;2022-11-14T12:44:18;16.02;;;7.07;;
56081;SDS011;41957;52.060;5.138;2022-11-14T13:03:18;15.95;;;7.25;;
56081;SDS011;41957;52.060;5.138;2022-11-14T13:08:36;16.35;;;7.97;;
56081;SDS011;41957;52.060;5.138;2022-11-14T13:11:39;16.13;;;7.25;;
56081;SDS011;41957;52.060;5.138;2022-11-14T13:14:25;17.73;;;8.02;;
56081;SDS011;41957;52.060;5.138;2022-11-14T13:17:17;16.25;;;7.72;;
56081;SDS011;41957;52.060;5.138;2022-11-14T13:28:42;15.52;;;7.68;;
56081;SDS011;41957;52.060;5.138;2022-11-14T13:33:43;17.23;;;9.30;;
56081;SDS011;41957;52.060;5.138;2022-11-14T13:36:59;18.15;;;9.27;;
56081;SDS011;41957;52.060;5.138;2022-11-14T13:41:50;16.80;;;8.50;;
56081;SDS011;41957;52.060;5.138;2022-11-14T13:44:47;16.98;;;8.77;;
56081;SDS011;41957;52.060;5.138;2022-11-14T13:47:17;18.63;;;9.20;;
56081;SDS011;41957;52.060;5.138;2022-11-14T13:52:33;17.83;;;8.82;;
56081;SDS011;41957;52.060;5.138;2022-11-14T13:55:03;18.83;;;9.10;;
56081;SDS011;41957;52.060;5.138;2022-11-14T13:57:36;18.83;;;11.07;;
56081;SDS011;41957;52.060;5.138;2022-11-14T14:00:14;19.98;;;10.88;;
56081;SDS011;41957;52.060;5.138;2022-11-14T14:22:16;19.45;;;11.40;;
56081;SDS011;41957;52.060;5.138;2022-11-14T14:28:08;23.95;;;12.10;;
56081;SDS011;41957;52.060;5.138;2022-11-14T14:31:43;20.58;;;11.98;;
56081;SDS011;41957;52.060;5.138;2022-11-14T14:33:45;22.95;;;13.60;;
56081;SDS011;41957;52.060;5.138;2022-11-14T14:38:45;22.52;;;13.27;;
56081;SDS011;41957;52.060;5.138;2022-11-14T14:41:12;23.63;;;13.77;;
56081;SDS011;41957;52.060;5.138;2022-11-14T14:43:39;21.98;;;13.63;;
56081;SDS011;41957;52.060;5.138;2022-11-14T14:46:06;23.98;;;14.10;;
56081;SDS011;41957;52.060;5.138;2022-11-14T14:48:32;22.75;;;13.27;;
56081;SDS011;41957;52.060;5.138;2022-11-14T14:51:00;23.35;;;13.68;;
56081;SDS011;41957;52.060;5.138;2022-11-14T14:53:32;24.17;;;14.23;;
56081;SDS011;41957;52.060;5.138;2022-11-14T14:56:03;22.85;;;13.50;;
56081;SDS011;41957;52.060;5.138;2022-11-14T14:58:31;22.88;;;14.13;;
56081;SDS011;41957;52.060;5.138;2022-11-14T15:04:01;23.48;;;14.07;;
56081;SDS011;41957;52.060;5.138;2022-11-14T15:06:34;24.88;;;13.90;;
56081;SDS011;41957;52.060;5.138;2022-11-14T15:09:07;22.98;;;14.40;;
56081;SDS011;41957;52.060;5.138;2022-11-14T15:11:35;23.67;;;13.90;;
56081;SDS011;41957;52.060;5.138;2022-11-14T15:14:05;23.70;;;14.23;;
56081;SDS011;41957;52.060;5.138;2022-11-14T15:16:31;25.05;;;14.13;;
56081;SDS011;41957;52.060;5.138;2022-11-14T15:18:57;23.77;;;14.90;;
56081;SDS011;41957;52.060;5.138;2022-11-14T15:21:25;27.13;;;14.27;;
56081;SDS011;41957;52.060;5.138;2022-11-14T15:26:43;23.90;;;14.73;;
56081;SDS011;41957;52.060;5.138;2022-11-14T15:29:31;23.27;;;14.38;;
56081;SDS011;41957;52.060;5.138;2022-11-14T15:31:57;23.88;;;14.68;;
56081;SDS011;41957;52.060;5.138;2022-11-14T15:39:38;25.52;;;14.95;;
56081;SDS011;41957;52.060;5.138;2022-11-14T15:44:50;24.98;;;14.95;;
56081;SDS011;41957;52.060;5.138;2022-11-14T15:49:59;30.33;;;19.10;;
56081;SDS011;41957;52.060;5.138;2022-11-14T15:52:34;34.00;;;20.63;;
56081;SDS011;41957;52.060;5.138;2022-11-14T15:55:01;38.08;;;23.23;;
56081;SDS011;41957;52.060;5.138;2022-11-14T15:57:27;36.50;;;23.23;;
56081;SDS011;41957;52.060;5.138;2022-11-14T15:59:55;40.13;;;25.48;;
56081;SDS011;41957;52.060;5.138;2022-11-14T16:02:21;39.35;;;23.77;;
56081;SDS011;41957;52.060;5.138;2022-11-14T16:04:50;34.45;;;21.73;;
56081;SDS011;41957;52.060;5.138;2022-11-14T16:07:17;36.03;;;22.83;;
56081;SDS011;41957;52.060;5.138;2022-11-14T16:09:43;56.13;;;23.77;;
56081;SDS011;41957;52.060;5.138;2022-11-14T16:12:09;34.00;;;20.02;;
56081;SDS011;41957;52.060;5.138;2022-11-14T16:14:34;33.83;;;20.30;;
56081;SDS011;41957;52.060;5.138;2022-11-14T16:17:00;31.70;;;19.63;;
56081;SDS011;41957;52.060;5.138;2022-11-14T16:19:25;28.75;;;18.77;;
56081;SDS011;41957;52.060;5.138;2022-11-14T16:21:50;28.75;;;18.33;;
56081;SDS011;41957;52.060;5.138;2022-11-14T16:24:17;31.63;;;17.27;;
56081;SDS011;41957;52.060;5.138;2022-11-14T16:26:46;31.00;;;16.88;;
56081;SDS011;41957;52.060;5.138;2022-11-14T16:29:13;26.27;;;16.25;;
56081;SDS011;41957;52.060;5.138;2022-11-14T16:31:39;26.40;;;15.18;;
56081;SDS011;41957;52.060;5.138;2022-11-14T16:34:04;22.52;;;13.98;;
56081;SDS011;41957;52.060;5.138;2022-11-14T16:36:30;23.55;;;13.50;;
56081;SDS011;41957;52.060;5.138;2022-11-14T16:38:57;24.83;;;13.32;;
56081;SDS011;41957;52.060;5.138;2022-11-14T16:41:25;24.58;;;13.63;;
56081;SDS011;41957;52.060;5.138;2022-11-14T16:43:52;23.60;;;13.32;;
56081;SDS011;41957;52.060;5.138;2022-11-14T16:46:18;21.00;;;11.98;;
56081;SDS011;41957;52.060;5.138;2022-11-14T16:48:43;21.80;;;12.63;;
56081;SDS011;41957;52.060;5.138;2022-11-14T16:51:09;21.67;;;12.07;;
56081;SDS011;41957;52.060;5.138;2022-11-14T16:53:34;21.40;;;11.45;;
56081;SDS011;41957;52.060;5.138;2022-11-14T16:55:59;18.92;;;11.35;;
56081;SDS011;41957;52.060;5.138;2022-11-14T16:58:25;20.38;;;10.57;;
56081;SDS011;41957;52.060;5.138;2022-11-14T17:00:50;20.40;;;10.75;;
56081;SDS011;41957;52.060;5.138;2022-11-14T17:03:16;19.58;;;10.63;;
56081;SDS011;41957;52.060;5.138;2022-11-14T17:05:48;19.83;;;10.32;;